sensor_id;sensor_type;location;lat;lon;timestamp;temperature;humidity
13251;DHT22;6692;50.710;7.180;2022-08-19T00:00:31;20.70;99.90
13251;DHT22;6692;50.710;7.180;2022-08-19T00:02:32;20.70;99.90
13251;DHT22;6692;50.710;7.180;2022-08-19T00:04:33;20.70;99.90
13251;DHT22;6692;50.710;7.180;2022-08-19T00:06:33;20.70;99.90
13251;DHT22;6692;50.710;7.180;2022-08-19T00:08:34;20.70;99.90
13251;DHT22;6692;50.710;7.180;2022-08-19T00:10:34;20.70;99.90
13251;DHT22;6692;50.710;7.180;2022-08-19T00:12:35;20.70;99.90
13251;DHT22;6692;50.710;7.180;2022-08-19T00:14:36;20.70;99.90
13251;DHT22;6692;50.710;7.180;2022-08-19T00:16:37;20.60;99.90
13251;DHT22;6692;50.710;7.180;2022-08-19T00:18:37;20.60;99.90
13251;DHT22;6692;50.710;7.180;2022-08-19T00:20:38;20.60;99.90
13251;DHT22;6692;50.710;7.180;2022-08-19T00:22:39;20.50;99.90
13251;DHT22;6692;50.710;7.180;2022-08-19T00:24:40;20.50;99.90
13251;DHT22;6692;50.710;7.180;2022-08-19T00:26:41;20.50;99.90
13251;DHT22;6692;50.710;7.180;2022-08-19T00:28:41;20.50;99.90
13251;DHT22;6692;50.710;7.180;2022-08-19T00:30:42;20.50;99.90
13251;DHT22;6692;50.710;7.180;2022-08-19T00:32:43;20.50;99.90
13251;DHT22;6692;50.710;7.180;2022-08-19T00:34:43;20.50;99.90
13251;DHT22;6692;50.710;7.180;2022-08-19T00:36:44;20.50;99.90
13251;DHT22;6692;50.710;7.180;2022-08-19T00:38:45;20.50;99.90
13251;DHT22;6692;50.710;7.180;2022-08-19T00:40:45;20.50;99.90
13251;DHT22;6692;50.710;7.180;2022-08-19T00:42:46;20.50;99.90
13251;DHT22;6692;50.710;7.180;2022-08-19T00:44:47;20.50;99.90
13251;DHT22;6692;50.710;7.180;2022-08-19T00:46:48;20.40;99.90
13251;DHT22;6692;50.710;7.180;2022-08-19T00:48:48;20.50;99.90
13251;DHT22;6692;50.710;7.180;2022-08-19T00:50:49;20.40;99.90
13251;DHT22;6692;50.710;7.180;2022-08-19T00:52:50;20.40;99.90
13251;DHT22;6692;50.710;7.180;2022-08-19T00:54:50;20.30;99.90
13251;DHT22;6692;50.710;7.180;2022-08-19T00:56:50;20.30;99.90
13251;DHT22;6692;50.710;7.180;2022-08-19T00:58:51;20.30;99.90
13251;DHT22;6692;50.710;7.180;2022-08-19T01:00:52;20.30;99.90
13251;DHT22;6692;50.710;7.180;2022-08-19T01:02:53;20.20;99.90
13251;DHT22;6692;50.710;7.180;2022-08-19T01:04:54;20.20;99.90
13251;DHT22;6692;50.710;7.180;2022-08-19T01:06:55;20.20;99.90
13251;DHT22;6692;50.710;7.180;2022-08-19T01:08:55;20.20;99.90
13251;DHT22;6692;50.710;7.180;2022-08-19T01:10:57;20.20;99.90
13251;DHT22;6692;50.710;7.180;2022-08-19T01:12:58;20.20;99.90
13251;DHT22;6692;50.710;7.180;2022-08-19T01:14:59;20.10;99.90
13251;DHT22;6692;50.710;7.180;2022-08-19T01:17:00;20.10;99.90
13251;DHT22;6692;50.710;7.180;2022-08-19T01:19:00;20.00;99.90
13251;DHT22;6692;50.710;7.180;2022-08-19T01:21:02;20.00;99.90
13251;DHT22;6692;50.710;7.180;2022-08-19T01:23:02;20.00;99.90
13251;DHT22;6692;50.710;7.180;2022-08-19T01:25:02;20.00;99.90
13251;DHT22;6692;50.710;7.180;2022-08-19T01:27:04;20.00;99.90
13251;DHT22;6692;50.710;7.180;2022-08-19T01:29:04;20.00;99.90
13251;DHT22;6692;50.710;7.180;2022-08-19T01:31:05;20.00;99.90
13251;DHT22;6692;50.710;7.180;2022-08-19T01:33:05;19.90;99.90
13251;DHT22;6692;50.710;7.180;2022-08-19T01:35:07;19.90;99.90
13251;DHT22;6692;50.710;7.180;2022-08-19T01:37:08;19.90;99.90
13251;DHT22;6692;50.710;7.180;2022-08-19T01:39:09;19.90;99.90
13251;DHT22;6692;50.710;7.180;2022-08-19T01:41:10;19.90;99.90
13251;DHT22;6692;50.710;7.180;2022-08-19T01:43:09;19.90;99.90
13251;DHT22;6692;50.710;7.180;2022-08-19T01:45:11;19.90;99.90
13251;DHT22;6692;50.710;7.180;2022-08-19T01:47:11;20.00;99.90
13251;DHT22;6692;50.710;7.180;2022-08-19T01:49:12;20.00;99.90
13251;DHT22;6692;50.710;7.180;2022-08-19T01:51:13;20.00;99.90
13251;DHT22;6692;50.710;7.180;2022-08-19T01:53:13;19.90;99.90
13251;DHT22;6692;50.710;7.180;2022-08-19T01:55:17;20.00;99.90
13251;DHT22;6692;50.710;7.180;2022-08-19T01:57:16;20.00;99.90
13251;DHT22;6692;50.710;7.180;2022-08-19T01:59:17;20.00;99.90
13251;DHT22;6692;50.710;7.180;2022-08-19T02:01:18;20.00;99.90
13251;DHT22;6692;50.710;7.180;2022-08-19T02:03:19;19.90;99.90
13251;DHT22;6692;50.710;7.180;2022-08-19T02:05:20;19.90;99.90
13251;DHT22;6692;50.710;7.180;2022-08-19T02:07:21;19.90;99.90
13251;DHT22;6692;50.710;7.180;2022-08-19T02:09:21;19.90;99.90
13251;DHT22;6692;50.710;7.180;2022-08-19T02:11:25;19.90;99.90
13251;DHT22;6692;50.710;7.180;2022-08-19T02:13:25;19.90;99.90
13251;DHT22;6692;50.710;7.180;2022-08-19T02:15:25;19.90;99.90
13251;DHT22;6692;50.710;7.180;2022-08-19T02:17:26;19.90;99.90
13251;DHT22;6692;50.710;7.180;2022-08-19T02:19:26;19.90;99.90
13251;DHT22;6692;50.710;7.180;2022-08-19T02:21:28;19.90;99.90
13251;DHT22;6692;50.710;7.180;2022-08-19T02:23:28;19.90;99.90
13251;DHT22;6692;50.710;7.180;2022-08-19T02:25:29;19.90;99.90
13251;DHT22;6692;50.710;7.180;2022-08-19T02:27:30;19.90;99.90
13251;DHT22;6692;50.710;7.180;2022-08-19T02:29:31;19.90;99.90
13251;DHT22;6692;50.710;7.180;2022-08-19T02:31:32;19.90;99.90
13251;DHT22;6692;50.710;7.180;2022-08-19T02:33:33;19.90;99.90
13251;DHT22;6692;50.710;7.180;2022-08-19T02:35:34;19.90;99.90
13251;DHT22;6692;50.710;7.180;2022-08-19T02:37:35;19.90;99.90
13251;DHT22;6692;50.710;7.180;2022-08-19T02:39:42;19.90;99.90
13251;DHT22;6692;50.710;7.180;2022-08-19T02:41:43;19.90;99.90
13251;DHT22;6692;50.710;7.180;2022-08-19T02:43:44;19.90;99.90
13251;DHT22;6692;50.710;7.180;2022-08-19T02:45:46;19.90;99.90
13251;DHT22;6692;50.710;7.180;2022-08-19T02:47:46;19.90;99.90
13251;DHT22;6692;50.710;7.180;2022-08-19T02:49:47;19.80;99.90
13251;DHT22;6692;50.710;7.180;2022-08-19T02:51:48;19.80;99.90
13251;DHT22;6692;50.710;7.180;2022-08-19T02:53:49;19.80;99.90
13251;DHT22;6692;50.710;7.180;2022-08-19T02:55:50;19.70;99.90
13251;DHT22;6692;50.710;7.180;2022-08-19T02:57:52;19.70;99.90
13251;DHT22;6692;50.710;7.180;2022-08-19T02:59:52;19.70;99.90
13251;DHT22;6692;50.710;7.180;2022-08-19T03:01:53;19.70;99.90
13251;DHT22;6692;50.710;7.180;2022-08-19T03:03:54;19.70;99.90
13251;DHT22;6692;50.710;7.180;2022-08-19T03:06:03;19.60;99.90
13251;DHT22;6692;50.710;7.180;2022-08-19T03:08:03;19.60;99.90
13251;DHT22;6692;50.710;7.180;2022-08-19T03:10:05;19.60;99.90
13251;DHT22;6692;50.710;7.180;2022-08-19T03:12:06;19.60;99.90
13251;DHT22;6692;50.710;7.180;2022-08-19T03:14:07;19.60;99.90
13251;DHT22;6692;50.710;7.180;2022-08-19T03:16:08;19.60;99.90
13251;DHT22;6692;50.710;7.180;2022-08-19T03:18:08;19.60;99.90
13251;DHT22;6692;50.710;7.180;2022-08-19T03:20:10;19.60;99.90
13251;DHT22;6692;50.710;7.180;2022-08-19T03:22:10;19.50;99.90
13251;DHT22;6692;50.710;7.180;2022-08-19T03:24:12;19.50;99.90
13251;DHT22;6692;50.710;7.180;2022-08-19T03:26:13;19.50;99.90
13251;DHT22;6692;50.710;7.180;2022-08-19T03:28:14;19.50;99.90
13251;DHT22;6692;50.710;7.180;2022-08-19T03:30:14;19.50;99.90
13251;DHT22;6692;50.710;7.180;2022-08-19T03:32:16;19.50;99.90
13251;DHT22;6692;50.710;7.180;2022-08-19T03:34:19;19.60;99.90
13251;DHT22;6692;50.710;7.180;2022-08-19T03:36:20;19.60;99.90
13251;DHT22;6692;50.710;7.180;2022-08-19T03:38:19;19.50;99.90
13251;DHT22;6692;50.710;7.180;2022-08-19T03:40:20;19.50;99.90
13251;DHT22;6692;50.710;7.180;2022-08-19T03:42:20;19.60;99.90
13251;DHT22;6692;50.710;7.180;2022-08-19T03:44:21;19.60;99.90
13251;DHT22;6692;50.710;7.180;2022-08-19T03:46:23;19.60;99.90
13251;DHT22;6692;50.710;7.180;2022-08-19T03:48:23;19.50;99.90
13251;DHT22;6692;50.710;7.180;2022-08-19T03:50:24;19.50;99.90
13251;DHT22;6692;50.710;7.180;2022-08-19T03:52:25;19.50;99.90
13251;DHT22;6692;50.710;7.180;2022-08-19T03:54:26;19.50;99.90
13251;DHT22;6692;50.710;7.180;2022-08-19T03:56:27;19.50;99.90
13251;DHT22;6692;50.710;7.180;2022-08-19T03:58:29;19.50;99.90
13251;DHT22;6692;50.710;7.180;2022-08-19T04:00:28;19.50;99.90
13251;DHT22;6692;50.710;7.180;2022-08-19T04:02:29;19.50;99.90
13251;DHT22;6692;50.710;7.180;2022-08-19T04:04:30;19.50;99.90
13251;DHT22;6692;50.710;7.180;2022-08-19T04:06:31;19.40;99.90
13251;DHT22;6692;50.710;7.180;2022-08-19T04:08:31;19.40;99.90
13251;DHT22;6692;50.710;7.180;2022-08-19T04:10:36;19.40;99.90
13251;DHT22;6692;50.710;7.180;2022-08-19T04:12:37;19.40;99.90
13251;DHT22;6692;50.710;7.180;2022-08-19T04:14:38;19.40;99.90
13251;DHT22;6692;50.710;7.180;2022-08-19T04:16:40;19.30;99.90
13251;DHT22;6692;50.710;7.180;2022-08-19T04:18:41;19.30;99.90
13251;DHT22;6692;50.710;7.180;2022-08-19T04:20:43;19.30;99.90
13251;DHT22;6692;50.710;7.180;2022-08-19T04:22:43;19.30;99.90
13251;DHT22;6692;50.710;7.180;2022-08-19T04:24:44;19.20;99.90
13251;DHT22;6692;50.710;7.180;2022-08-19T04:26:45;19.20;99.90
13251;DHT22;6692;50.710;7.180;2022-08-19T04:28:45;19.20;99.90
13251;DHT22;6692;50.710;7.180;2022-08-19T04:30:47;19.20;99.90
13251;DHT22;6692;50.710;7.180;2022-08-19T04:32:46;19.30;99.90
13251;DHT22;6692;50.710;7.180;2022-08-19T04:34:48;19.20;99.90
13251;DHT22;6692;50.710;7.180;2022-08-19T04:36:49;19.20;99.90
13251;DHT22;6692;50.710;7.180;2022-08-19T04:38:50;19.20;99.90
13251;DHT22;6692;50.710;7.180;2022-08-19T04:40:51;19.30;99.90
13251;DHT22;6692;50.710;7.180;2022-08-19T04:42:57;19.20;99.90
13251;DHT22;6692;50.710;7.180;2022-08-19T04:44:58;19.20;99.90
13251;DHT22;6692;50.710;7.180;2022-08-19T04:46:58;19.20;99.90
13251;DHT22;6692;50.710;7.180;2022-08-19T04:48:59;19.20;99.90
13251;DHT22;6692;50.710;7.180;2022-08-19T04:51:00;19.20;99.90
13251;DHT22;6692;50.710;7.180;2022-08-19T04:53:00;19.30;99.90
13251;DHT22;6692;50.710;7.180;2022-08-19T04:55:01;19.30;99.90
13251;DHT22;6692;50.710;7.180;2022-08-19T04:57:02;19.20;99.90
13251;DHT22;6692;50.710;7.180;2022-08-19T04:59:03;19.30;99.90
13251;DHT22;6692;50.710;7.180;2022-08-19T05:01:04;19.20;99.90
13251;DHT22;6692;50.710;7.180;2022-08-19T05:03:05;19.20;99.90
13251;DHT22;6692;50.710;7.180;2022-08-19T05:05:06;19.30;99.90
13251;DHT22;6692;50.710;7.180;2022-08-19T05:07:07;19.30;99.90
13251;DHT22;6692;50.710;7.180;2022-08-19T05:09:08;19.30;99.90
13251;DHT22;6692;50.710;7.180;2022-08-19T05:11:11;19.30;99.90
13251;DHT22;6692;50.710;7.180;2022-08-19T05:13:10;19.30;99.90
13251;DHT22;6692;50.710;7.180;2022-08-19T05:15:12;19.30;99.90
13251;DHT22;6692;50.710;7.180;2022-08-19T05:17:14;19.30;99.90
13251;DHT22;6692;50.710;7.180;2022-08-19T05:19:14;19.30;99.90
13251;DHT22;6692;50.710;7.180;2022-08-19T05:21:21;19.30;99.90
13251;DHT22;6692;50.710;7.180;2022-08-19T05:23:28;19.30;99.90
13251;DHT22;6692;50.710;7.180;2022-08-19T05:25:29;19.30;99.90
13251;DHT22;6692;50.710;7.180;2022-08-19T05:27:29;19.30;99.90
13251;DHT22;6692;50.710;7.180;2022-08-19T05:29:30;19.30;99.90
13251;DHT22;6692;50.710;7.180;2022-08-19T05:31:33;19.30;99.90
13251;DHT22;6692;50.710;7.180;2022-08-19T05:33:33;19.30;99.90
13251;DHT22;6692;50.710;7.180;2022-08-19T05:35:33;19.40;99.90
13251;DHT22;6692;50.710;7.180;2022-08-19T05:37:34;19.40;99.90
13251;DHT22;6692;50.710;7.180;2022-08-19T05:39:35;19.40;99.90
13251;DHT22;6692;50.710;7.180;2022-08-19T05:41:35;19.50;99.90
13251;DHT22;6692;50.710;7.180;2022-08-19T05:43:37;19.50;99.90
13251;DHT22;6692;50.710;7.180;2022-08-19T05:45:38;19.50;99.90
13251;DHT22;6692;50.710;7.180;2022-08-19T05:47:38;19.50;99.90
13251;DHT22;6692;50.710;7.180;2022-08-19T05:49:39;19.50;99.90
13251;DHT22;6692;50.710;7.180;2022-08-19T05:51:39;19.50;99.90
13251;DHT22;6692;50.710;7.180;2022-08-19T05:53:41;19.50;99.90
13251;DHT22;6692;50.710;7.180;2022-08-19T05:55:41;19.50;99.90
13251;DHT22;6692;50.710;7.180;2022-08-19T05:57:42;19.60;99.90
13251;DHT22;6692;50.710;7.180;2022-08-19T05:59:43;19.60;99.90
13251;DHT22;6692;50.710;7.180;2022-08-19T06:01:44;19.60;99.90
13251;DHT22;6692;50.710;7.180;2022-08-19T06:03:44;19.60;99.90
13251;DHT22;6692;50.710;7.180;2022-08-19T06:05:45;19.60;99.90
13251;DHT22;6692;50.710;7.180;2022-08-19T06:07:46;19.60;99.90
13251;DHT22;6692;50.710;7.180;2022-08-19T06:09:46;19.70;99.90
13251;DHT22;6692;50.710;7.180;2022-08-19T06:11:50;19.70;99.90
13251;DHT22;6692;50.710;7.180;2022-08-19T06:13:51;19.80;99.90
13251;DHT22;6692;50.710;7.180;2022-08-19T06:15:51;19.80;99.90
13251;DHT22;6692;50.710;7.180;2022-08-19T06:17:52;20.00;99.90
13251;DHT22;6692;50.710;7.180;2022-08-19T06:19:54;20.00;99.90
13251;DHT22;6692;50.710;7.180;2022-08-19T06:21:54;20.00;99.90
13251;DHT22;6692;50.710;7.180;2022-08-19T06:23:56;20.20;99.90
13251;DHT22;6692;50.710;7.180;2022-08-19T06:25:57;20.20;99.90
13251;DHT22;6692;50.710;7.180;2022-08-19T06:27:58;20.20;99.90
13251;DHT22;6692;50.710;7.180;2022-08-19T06:30:00;20.20;99.90
13251;DHT22;6692;50.710;7.180;2022-08-19T06:32:01;20.20;99.90
13251;DHT22;6692;50.710;7.180;2022-08-19T06:34:03;20.20;99.90
13251;DHT22;6692;50.710;7.180;2022-08-19T06:36:03;20.20;99.90
13251;DHT22;6692;50.710;7.180;2022-08-19T06:38:04;20.20;99.90
13251;DHT22;6692;50.710;7.180;2022-08-19T06:40:06;20.30;99.90
13251;DHT22;6692;50.710;7.180;2022-08-19T06:42:07;20.40;99.90
13251;DHT22;6692;50.710;7.180;2022-08-19T06:44:07;20.50;99.90
13251;DHT22;6692;50.710;7.180;2022-08-19T06:46:11;20.60;99.90
13251;DHT22;6692;50.710;7.180;2022-08-19T06:48:10;20.60;99.90
13251;DHT22;6692;50.710;7.180;2022-08-19T06:50:11;20.70;99.90
13251;DHT22;6692;50.710;7.180;2022-08-19T06:52:12;20.80;99.90
13251;DHT22;6692;50.710;7.180;2022-08-19T06:54:12;20.90;99.90
13251;DHT22;6692;50.710;7.180;2022-08-19T06:56:15;21.00;99.90
13251;DHT22;6692;50.710;7.180;2022-08-19T06:58:15;21.10;99.90
13251;DHT22;6692;50.710;7.180;2022-08-19T07:00:15;21.20;99.90
13251;DHT22;6692;50.710;7.180;2022-08-19T07:02:16;21.20;99.90
13251;DHT22;6692;50.710;7.180;2022-08-19T07:04:18;21.20;99.90
13251;DHT22;6692;50.710;7.180;2022-08-19T07:06:18;21.30;99.90
13251;DHT22;6692;50.710;7.180;2022-08-19T07:08:19;21.30;99.90
13251;DHT22;6692;50.710;7.180;2022-08-19T07:10:20;21.20;99.90
13251;DHT22;6692;50.710;7.180;2022-08-19T07:12:21;21.20;99.90
13251;DHT22;6692;50.710;7.180;2022-08-19T07:14:22;21.20;99.90
13251;DHT22;6692;50.710;7.180;2022-08-19T07:16:23;21.40;99.90
13251;DHT22;6692;50.710;7.180;2022-08-19T07:18:23;21.40;99.90
13251;DHT22;6692;50.710;7.180;2022-08-19T07:20:24;21.40;99.90
13251;DHT22;6692;50.710;7.180;2022-08-19T07:22:25;21.40;99.90
13251;DHT22;6692;50.710;7.180;2022-08-19T07:24:26;21.40;99.90
13251;DHT22;6692;50.710;7.180;2022-08-19T07:26:27;21.50;99.90
13251;DHT22;6692;50.710;7.180;2022-08-19T07:28:26;21.60;99.90
13251;DHT22;6692;50.710;7.180;2022-08-19T07:30:27;21.70;99.90
13251;DHT22;6692;50.710;7.180;2022-08-19T07:32:28;21.70;99.90
13251;DHT22;6692;50.710;7.180;2022-08-19T07:34:29;21.80;99.90
13251;DHT22;6692;50.710;7.180;2022-08-19T07:36:30;21.80;99.90
13251;DHT22;6692;50.710;7.180;2022-08-19T07:38:31;21.80;99.90
13251;DHT22;6692;50.710;7.180;2022-08-19T07:40:31;21.80;99.90
13251;DHT22;6692;50.710;7.180;2022-08-19T07:42:32;21.90;99.90
13251;DHT22;6692;50.710;7.180;2022-08-19T07:44:33;21.90;99.90
13251;DHT22;6692;50.710;7.180;2022-08-19T07:46:34;22.00;99.90
13251;DHT22;6692;50.710;7.180;2022-08-19T07:48:34;22.00;99.90
13251;DHT22;6692;50.710;7.180;2022-08-19T07:50:34;22.00;99.90
13251;DHT22;6692;50.710;7.180;2022-08-19T07:52:36;22.10;99.90
13251;DHT22;6692;50.710;7.180;2022-08-19T07:54:36;22.10;99.90
13251;DHT22;6692;50.710;7.180;2022-08-19T07:56:36;22.10;99.90
13251;DHT22;6692;50.710;7.180;2022-08-19T07:58:38;22.10;99.90
13251;DHT22;6692;50.710;7.180;2022-08-19T08:00:38;22.00;99.90
13251;DHT22;6692;50.710;7.180;2022-08-19T08:02:38;22.00;99.90
13251;DHT22;6692;50.710;7.180;2022-08-19T08:04:39;22.10;99.90
13251;DHT22;6692;50.710;7.180;2022-08-19T08:06:46;22.10;99.90
13251;DHT22;6692;50.710;7.180;2022-08-19T08:08:53;22.10;99.90
13251;DHT22;6692;50.710;7.180;2022-08-19T08:11:00;22.20;99.90
13251;DHT22;6692;50.710;7.180;2022-08-19T08:13:00;22.20;99.90
13251;DHT22;6692;50.710;7.180;2022-08-19T08:15:03;22.20;99.90
13251;DHT22;6692;50.710;7.180;2022-08-19T08:17:02;22.20;99.90
13251;DHT22;6692;50.710;7.180;2022-08-19T08:19:05;22.20;99.90
13251;DHT22;6692;50.710;7.180;2022-08-19T08:21:05;22.20;99.90
13251;DHT22;6692;50.710;7.180;2022-08-19T08:23:05;22.20;99.90
13251;DHT22;6692;50.710;7.180;2022-08-19T08:25:15;22.20;99.90
13251;DHT22;6692;50.710;7.180;2022-08-19T08:27:14;22.20;99.90
13251;DHT22;6692;50.710;7.180;2022-08-19T08:29:14;22.30;99.90
13251;DHT22;6692;50.710;7.180;2022-08-19T08:31:15;22.30;99.90
13251;DHT22;6692;50.710;7.180;2022-08-19T08:33:18;22.40;99.90
13251;DHT22;6692;50.710;7.180;2022-08-19T08:35:19;22.50;99.90
13251;DHT22;6692;50.710;7.180;2022-08-19T08:37:18;22.60;99.90
13251;DHT22;6692;50.710;7.180;2022-08-19T08:39:19;22.60;99.90
13251;DHT22;6692;50.710;7.180;2022-08-19T08:41:31;22.60;99.90
13251;DHT22;6692;50.710;7.180;2022-08-19T08:43:31;22.70;99.90
13251;DHT22;6692;50.710;7.180;2022-08-19T08:45:30;22.80;99.90
13251;DHT22;6692;50.710;7.180;2022-08-19T08:47:32;22.90;99.90
13251;DHT22;6692;50.710;7.180;2022-08-19T08:49:40;23.00;99.90
13251;DHT22;6692;50.710;7.180;2022-08-19T08:51:40;23.00;99.90
13251;DHT22;6692;50.710;7.180;2022-08-19T08:53:39;23.10;99.90
13251;DHT22;6692;50.710;7.180;2022-08-19T08:55:40;23.20;99.90
13251;DHT22;6692;50.710;7.180;2022-08-19T08:57:45;23.40;99.90
13251;DHT22;6692;50.710;7.180;2022-08-19T08:59:44;23.50;99.90
13251;DHT22;6692;50.710;7.180;2022-08-19T09:01:44;23.50;99.90
13251;DHT22;6692;50.710;7.180;2022-08-19T09:03:45;23.50;99.90
13251;DHT22;6692;50.710;7.180;2022-08-19T09:05:55;23.40;99.90
13251;DHT22;6692;50.710;7.180;2022-08-19T09:07:58;23.50;99.90
13251;DHT22;6692;50.710;7.180;2022-08-19T09:09:57;23.50;99.90
13251;DHT22;6692;50.710;7.180;2022-08-19T09:14:16;23.50;99.90
13251;DHT22;6692;50.710;7.180;2022-08-19T09:16:15;23.40;99.90
13251;DHT22;6692;50.710;7.180;2022-08-19T09:18:14;23.40;99.90
13251;DHT22;6692;50.710;7.180;2022-08-19T09:20:18;23.40;99.90
13251;DHT22;6692;50.710;7.180;2022-08-19T09:22:16;23.40;99.90
13251;DHT22;6692;50.710;7.180;2022-08-19T09:24:17;23.40;99.90
13251;DHT22;6692;50.710;7.180;2022-08-19T09:26:20;23.40;99.90
13251;DHT22;6692;50.710;7.180;2022-08-19T09:28:19;23.40;99.90
13251;DHT22;6692;50.710;7.180;2022-08-19T09:30:22;23.40;99.90
13251;DHT22;6692;50.710;7.180;2022-08-19T09:32:21;23.40;99.90
13251;DHT22;6692;50.710;7.180;2022-08-19T09:34:22;23.40;99.90
13251;DHT22;6692;50.710;7.180;2022-08-19T09:36:23;23.50;99.90
13251;DHT22;6692;50.710;7.180;2022-08-19T09:38:23;23.50;99.90
13251;DHT22;6692;50.710;7.180;2022-08-19T09:40:23;23.50;99.90
13251;DHT22;6692;50.710;7.180;2022-08-19T09:42:24;23.50;99.90
13251;DHT22;6692;50.710;7.180;2022-08-19T09:44:25;23.50;99.90
13251;DHT22;6692;50.710;7.180;2022-08-19T09:46:27;23.50;99.90
13251;DHT22;6692;50.710;7.180;2022-08-19T09:48:27;23.50;99.90
13251;DHT22;6692;50.710;7.180;2022-08-19T09:50:29;23.60;99.90
13251;DHT22;6692;50.710;7.180;2022-08-19T09:52:30;23.60;99.90
13251;DHT22;6692;50.710;7.180;2022-08-19T09:54:30;23.60;99.90
13251;DHT22;6692;50.710;7.180;2022-08-19T09:56:31;23.70;99.90
13251;DHT22;6692;50.710;7.180;2022-08-19T09:58:33;23.80;99.90
13251;DHT22;6692;50.710;7.180;2022-08-19T10:00:33;23.70;99.90
13251;DHT22;6692;50.710;7.180;2022-08-19T10:02:34;23.80;99.90
13251;DHT22;6692;50.710;7.180;2022-08-19T10:04:34;23.70;99.90
13251;DHT22;6692;50.710;7.180;2022-08-19T10:06:41;23.80;99.90
13251;DHT22;6692;50.710;7.180;2022-08-19T10:08:42;23.70;99.90
13251;DHT22;6692;50.710;7.180;2022-08-19T10:10:42;23.80;99.90
13251;DHT22;6692;50.710;7.180;2022-08-19T10:12:45;23.90;99.90
13251;DHT22;6692;50.710;7.180;2022-08-19T10:14:46;23.90;99.90
13251;DHT22;6692;50.710;7.180;2022-08-19T10:16:47;23.90;99.90
13251;DHT22;6692;50.710;7.180;2022-08-19T10:18:48;23.90;99.90
13251;DHT22;6692;50.710;7.180;2022-08-19T10:20:49;23.90;99.90
13251;DHT22;6692;50.710;7.180;2022-08-19T10:22:49;23.90;99.90
13251;DHT22;6692;50.710;7.180;2022-08-19T10:24:50;23.80;99.90
13251;DHT22;6692;50.710;7.180;2022-08-19T10:26:51;23.90;99.90
13251;DHT22;6692;50.710;7.180;2022-08-19T10:28:51;23.90;99.90
13251;DHT22;6692;50.710;7.180;2022-08-19T10:30:52;23.90;99.90
13251;DHT22;6692;50.710;7.180;2022-08-19T10:32:52;24.00;99.90
13251;DHT22;6692;50.710;7.180;2022-08-19T10:34:54;24.40;99.90
13251;DHT22;6692;50.710;7.180;2022-08-19T10:36:56;24.40;99.90
13251;DHT22;6692;50.710;7.180;2022-08-19T10:38:57;24.40;99.90
13251;DHT22;6692;50.710;7.180;2022-08-19T10:40:57;24.40;99.90
13251;DHT22;6692;50.710;7.180;2022-08-19T10:42:57;24.40;99.90
13251;DHT22;6692;50.710;7.180;2022-08-19T10:44:59;24.60;99.90
13251;DHT22;6692;50.710;7.180;2022-08-19T10:46:59;24.60;99.90
13251;DHT22;6692;50.710;7.180;2022-08-19T10:49:00;24.70;99.90
13251;DHT22;6692;50.710;7.180;2022-08-19T10:51:01;24.90;99.90
13251;DHT22;6692;50.710;7.180;2022-08-19T10:53:08;25.10;99.90
13251;DHT22;6692;50.710;7.180;2022-08-19T10:55:09;25.10;99.90
13251;DHT22;6692;50.710;7.180;2022-08-19T10:57:15;25.20;99.90
13251;DHT22;6692;50.710;7.180;2022-08-19T10:59:20;25.30;99.90
13251;DHT22;6692;50.710;7.180;2022-08-19T11:01:19;25.20;99.90
13251;DHT22;6692;50.710;7.180;2022-08-19T11:03:19;25.20;99.90
13251;DHT22;6692;50.710;7.180;2022-08-19T11:05:20;25.30;99.90
13251;DHT22;6692;50.710;7.180;2022-08-19T11:07:20;25.30;99.90
13251;DHT22;6692;50.710;7.180;2022-08-19T11:09:22;25.30;99.90
13251;DHT22;6692;50.710;7.180;2022-08-19T11:11:22;25.30;99.90
13251;DHT22;6692;50.710;7.180;2022-08-19T11:13:22;25.30;99.90
13251;DHT22;6692;50.710;7.180;2022-08-19T11:15:23;25.40;99.90
13251;DHT22;6692;50.710;7.180;2022-08-19T11:17:24;25.50;99.90
13251;DHT22;6692;50.710;7.180;2022-08-19T11:19:24;25.50;99.90
13251;DHT22;6692;50.710;7.180;2022-08-19T11:21:27;25.60;99.90
13251;DHT22;6692;50.710;7.180;2022-08-19T11:23:27;25.80;99.90
13251;DHT22;6692;50.710;7.180;2022-08-19T11:25:28;25.80;99.90
13251;DHT22;6692;50.710;7.180;2022-08-19T11:27:29;26.00;99.90
13251;DHT22;6692;50.710;7.180;2022-08-19T11:29:31;26.00;99.90
13251;DHT22;6692;50.710;7.180;2022-08-19T11:31:33;26.00;99.90
13251;DHT22;6692;50.710;7.180;2022-08-19T11:33:33;26.00;99.90
13251;DHT22;6692;50.710;7.180;2022-08-19T11:35:33;26.00;99.90
13251;DHT22;6692;50.710;7.180;2022-08-19T11:37:34;25.90;99.90
13251;DHT22;6692;50.710;7.180;2022-08-19T11:39:35;25.90;99.90
13251;DHT22;6692;50.710;7.180;2022-08-19T11:41:35;26.00;99.90
13251;DHT22;6692;50.710;7.180;2022-08-19T11:43:36;26.10;99.90
13251;DHT22;6692;50.710;7.180;2022-08-19T11:45:37;26.30;99.90
13251;DHT22;6692;50.710;7.180;2022-08-19T11:47:39;26.40;99.90
13251;DHT22;6692;50.710;7.180;2022-08-19T11:49:39;26.40;99.90
13251;DHT22;6692;50.710;7.180;2022-08-19T11:51:40;26.40;99.90
13251;DHT22;6692;50.710;7.180;2022-08-19T11:53:41;26.40;99.90
13251;DHT22;6692;50.710;7.180;2022-08-19T11:55:41;26.40;99.90
13251;DHT22;6692;50.710;7.180;2022-08-19T11:57:42;26.30;99.90
13251;DHT22;6692;50.710;7.180;2022-08-19T11:59:48;26.20;99.90
13251;DHT22;6692;50.710;7.180;2022-08-19T12:01:48;26.20;99.90
13251;DHT22;6692;50.710;7.180;2022-08-19T12:03:50;26.20;99.90
13251;DHT22;6692;50.710;7.180;2022-08-19T12:05:49;26.20;99.90
13251;DHT22;6692;50.710;7.180;2022-08-19T12:07:50;26.20;99.90
13251;DHT22;6692;50.710;7.180;2022-08-19T12:09:51;26.20;99.90
13251;DHT22;6692;50.710;7.180;2022-08-19T12:11:51;26.30;99.90
13251;DHT22;6692;50.710;7.180;2022-08-19T12:13:52;26.30;99.90
13251;DHT22;6692;50.710;7.180;2022-08-19T12:15:53;26.30;99.90
13251;DHT22;6692;50.710;7.180;2022-08-19T12:17:53;26.40;99.90
13251;DHT22;6692;50.710;7.180;2022-08-19T12:19:54;26.50;99.90
13251;DHT22;6692;50.710;7.180;2022-08-19T12:21:58;26.50;99.90
13251;DHT22;6692;50.710;7.180;2022-08-19T12:23:56;26.50;99.90
13251;DHT22;6692;50.710;7.180;2022-08-19T12:25:56;26.40;99.90
13251;DHT22;6692;50.710;7.180;2022-08-19T12:27:57;26.30;99.90
13251;DHT22;6692;50.710;7.180;2022-08-19T12:29:57;26.20;99.90
13251;DHT22;6692;50.710;7.180;2022-08-19T12:31:58;26.30;99.90
13251;DHT22;6692;50.710;7.180;2022-08-19T12:33:58;26.30;99.90
13251;DHT22;6692;50.710;7.180;2022-08-19T12:36:00;26.40;99.90
13251;DHT22;6692;50.710;7.180;2022-08-19T12:38:00;26.50;99.90
13251;DHT22;6692;50.710;7.180;2022-08-19T12:40:00;26.50;99.90
13251;DHT22;6692;50.710;7.180;2022-08-19T12:42:01;26.50;99.90
13251;DHT22;6692;50.710;7.180;2022-08-19T12:44:02;26.50;99.90
13251;DHT22;6692;50.710;7.180;2022-08-19T12:46:03;26.40;99.90
13251;DHT22;6692;50.710;7.180;2022-08-19T12:48:04;26.40;99.90
13251;DHT22;6692;50.710;7.180;2022-08-19T12:50:06;26.60;99.90
13251;DHT22;6692;50.710;7.180;2022-08-19T12:52:08;26.90;99.90
13251;DHT22;6692;50.710;7.180;2022-08-19T12:54:08;26.90;99.90
13251;DHT22;6692;50.710;7.180;2022-08-19T12:56:10;27.40;99.90
13251;DHT22;6692;50.710;7.180;2022-08-19T12:58:10;28.30;97.50